sensor_id;sensor_type;location;lat;lon;timestamp;P1;durP1;ratioP1;P2;durP2;ratioP2
4915;SDS011;70796;52.406;13.230;2023-11-19T00:01:34;12.40;;;7.80;;
4915;SDS011;70796;52.406;13.230;2023-11-19T00:04:00;10.50;;;7.57;;
4915;SDS011;70796;52.406;13.230;2023-11-19T00:06:27;10.60;;;8.30;;
4915;SDS011;70796;52.406;13.230;2023-11-19T00:08:54;10.70;;;7.50;;
4915;SDS011;70796;52.406;13.230;2023-11-19T00:11:22;12.47;;;8.10;;
4915;SDS011;70796;52.406;13.230;2023-11-19T00:13:49;11.00;;;7.40;;
4915;SDS011;70796;52.406;13.230;2023-11-19T00:16:15;8.33;;;7.13;;
4915;SDS011;70796;52.406;13.230;2023-11-19T00:18:43;10.67;;;7.40;;
4915;SDS011;70796;52.406;13.230;2023-11-19T00:21:09;15.27;;;7.40;;
4915;SDS011;70796;52.406;13.230;2023-11-19T00:23:37;7.90;;;6.60;;
4915;SDS011;70796;52.406;13.230;2023-11-19T00:26:04;9.03;;;7.20;;
4915;SDS011;70796;52.406;13.230;2023-11-19T00:28:32;7.80;;;6.93;;
4915;SDS011;70796;52.406;13.230;2023-11-19T00:30:59;12.20;;;7.57;;
4915;SDS011;70796;52.406;13.230;2023-11-19T00:33:26;11.40;;;7.20;;
4915;SDS011;70796;52.406;13.230;2023-11-19T00:35:52;8.43;;;6.97;;
4915;SDS011;70796;52.406;13.230;2023-11-19T00:38:18;16.23;;;7.47;;
4915;SDS011;70796;52.406;13.230;2023-11-19T00:40:45;8.33;;;6.50;;
4915;SDS011;70796;52.406;13.230;2023-11-19T00:43:13;10.43;;;7.10;;
4915;SDS011;70796;52.406;13.230;2023-11-19T00:45:40;9.63;;;7.10;;
4915;SDS011;70796;52.406;13.230;2023-11-19T00:48:06;7.13;;;6.30;;
4915;SDS011;70796;52.406;13.230;2023-11-19T00:50:34;8.97;;;6.90;;
4915;SDS011;70796;52.406;13.230;2023-11-19T00:53:03;9.57;;;6.70;;
4915;SDS011;70796;52.406;13.230;2023-11-19T00:55:30;8.80;;;6.80;;
4915;SDS011;70796;52.406;13.230;2023-11-19T00:57:56;9.90;;;5.40;;
4915;SDS011;70796;52.406;13.230;2023-11-19T01:00:24;8.80;;;6.63;;
4915;SDS011;70796;52.406;13.230;2023-11-19T01:02:54;7.33;;;6.53;;
4915;SDS011;70796;52.406;13.230;2023-11-19T01:05:21;10.97;;;6.20;;
4915;SDS011;70796;52.406;13.230;2023-11-19T01:07:50;8.93;;;6.40;;
4915;SDS011;70796;52.406;13.230;2023-11-19T01:10:18;10.87;;;6.77;;
4915;SDS011;70796;52.406;13.230;2023-11-19T01:12:46;10.40;;;7.20;;
4915;SDS011;70796;52.406;13.230;2023-11-19T01:15:12;8.40;;;6.23;;
4915;SDS011;70796;52.406;13.230;2023-11-19T01:17:40;9.80;;;6.47;;
4915;SDS011;70796;52.406;13.230;2023-11-19T01:20:19;8.07;;;6.27;;
4915;SDS011;70796;52.406;13.230;2023-11-19T01:22:47;10.80;;;6.47;;
4915;SDS011;70796;52.406;13.230;2023-11-19T01:25:16;8.47;;;6.20;;
4915;SDS011;70796;52.406;13.230;2023-11-19T01:27:43;6.90;;;6.20;;
4915;SDS011;70796;52.406;13.230;2023-11-19T01:30:10;8.00;;;6.30;;
4915;SDS011;70796;52.406;13.230;2023-11-19T01:32:39;10.07;;;6.63;;
4915;SDS011;70796;52.406;13.230;2023-11-19T01:35:08;8.03;;;6.50;;
4915;SDS011;70796;52.406;13.230;2023-11-19T01:37:34;9.63;;;6.57;;
4915;SDS011;70796;52.406;13.230;2023-11-19T01:40:02;7.10;;;6.10;;
4915;SDS011;70796;52.406;13.230;2023-11-19T01:42:42;8.10;;;6.50;;
4915;SDS011;70796;52.406;13.230;2023-11-19T01:45:09;9.73;;;6.63;;
4915;SDS011;70796;52.406;13.230;2023-11-19T01:47:36;7.10;;;6.10;;
4915;SDS011;70796;52.406;13.230;2023-11-19T01:50:04;10.13;;;6.60;;
4915;SDS011;70796;52.406;13.230;2023-11-19T01:52:33;8.67;;;6.60;;
4915;SDS011;70796;52.406;13.230;2023-11-19T01:55:02;8.80;;;5.23;;
4915;SDS011;70796;52.406;13.230;2023-11-19T01:57:29;8.60;;;6.57;;
4915;SDS011;70796;52.406;13.230;2023-11-19T01:59:56;8.57;;;5.67;;
4915;SDS011;70796;52.406;13.230;2023-11-19T02:02:23;8.20;;;6.07;;
4915;SDS011;70796;52.406;13.230;2023-11-19T02:04:50;8.00;;;5.83;;
4915;SDS011;70796;52.406;13.230;2023-11-19T02:07:17;12.43;;;5.80;;
4915;SDS011;70796;52.406;13.230;2023-11-19T02:09:44;6.90;;;5.57;;
4915;SDS011;70796;52.406;13.230;2023-11-19T02:12:11;6.43;;;5.33;;
4915;SDS011;70796;52.406;13.230;2023-11-19T02:14:41;9.87;;;5.70;;
4915;SDS011;70796;52.406;13.230;2023-11-19T02:17:24;6.57;;;5.17;;
4915;SDS011;70796;52.406;13.230;2023-11-19T02:19:51;6.13;;;4.60;;
4915;SDS011;70796;52.406;13.230;2023-11-19T02:22:18;7.00;;;5.70;;
4915;SDS011;70796;52.406;13.230;2023-11-19T02:24:45;7.20;;;5.30;;
4915;SDS011;70796;52.406;13.230;2023-11-19T02:27:17;6.03;;;5.27;;
4915;SDS011;70796;52.406;13.230;2023-11-19T02:29:45;6.80;;;4.80;;
4915;SDS011;70796;52.406;13.230;2023-11-19T02:32:15;6.77;;;4.90;;
4915;SDS011;70796;52.406;13.230;2023-11-19T02:34:42;7.83;;;5.73;;
4915;SDS011;70796;52.406;13.230;2023-11-19T02:37:09;11.00;;;5.90;;
4915;SDS011;70796;52.406;13.230;2023-11-19T02:39:36;6.23;;;5.20;;
4915;SDS011;70796;52.406;13.230;2023-11-19T02:42:03;6.90;;;4.93;;
4915;SDS011;70796;52.406;13.230;2023-11-19T02:44:29;6.80;;;5.10;;
4915;SDS011;70796;52.406;13.230;2023-11-19T02:46:57;5.30;;;4.80;;
4915;SDS011;70796;52.406;13.230;2023-11-19T02:49:25;6.93;;;5.97;;
4915;SDS011;70796;52.406;13.230;2023-11-19T02:51:52;8.47;;;6.07;;
4915;SDS011;70796;52.406;13.230;2023-11-19T02:54:18;8.20;;;4.90;;
4915;SDS011;70796;52.406;13.230;2023-11-19T02:56:45;5.60;;;5.10;;
4915;SDS011;70796;52.406;13.230;2023-11-19T02:59:17;7.60;;;5.20;;
4915;SDS011;70796;52.406;13.230;2023-11-19T03:01:54;6.07;;;5.20;;
4915;SDS011;70796;52.406;13.230;2023-11-19T03:04:21;7.80;;;5.40;;
4915;SDS011;70796;52.406;13.230;2023-11-19T03:06:50;7.40;;;4.83;;
4915;SDS011;70796;52.406;13.230;2023-11-19T03:09:16;5.83;;;5.23;;
4915;SDS011;70796;52.406;13.230;2023-11-19T03:11:43;6.47;;;5.17;;
4915;SDS011;70796;52.406;13.230;2023-11-19T03:14:09;7.73;;;5.27;;
4915;SDS011;70796;52.406;13.230;2023-11-19T03:16:37;7.03;;;5.17;;
4915;SDS011;70796;52.406;13.230;2023-11-19T03:19:04;7.00;;;4.87;;
4915;SDS011;70796;52.406;13.230;2023-11-19T03:21:31;6.53;;;5.40;;
4915;SDS011;70796;52.406;13.230;2023-11-19T03:23:58;9.60;;;5.93;;
4915;SDS011;70796;52.406;13.230;2023-11-19T03:26:27;7.37;;;5.67;;
4915;SDS011;70796;52.406;13.230;2023-11-19T03:28:53;7.80;;;5.60;;
4915;SDS011;70796;52.406;13.230;2023-11-19T03:31:23;6.17;;;5.57;;
4915;SDS011;70796;52.406;13.230;2023-11-19T03:33:50;7.30;;;5.57;;
4915;SDS011;70796;52.406;13.230;2023-11-19T03:36:17;7.60;;;6.00;;
4915;SDS011;70796;52.406;13.230;2023-11-19T03:38:45;7.93;;;6.30;;
4915;SDS011;70796;52.406;13.230;2023-11-19T03:41:12;7.63;;;5.93;;
4915;SDS011;70796;52.406;13.230;2023-11-19T03:43:39;10.00;;;6.50;;
4915;SDS011;70796;52.406;13.230;2023-11-19T03:46:16;7.37;;;5.90;;
4915;SDS011;70796;52.406;13.230;2023-11-19T03:48:43;7.17;;;5.40;;
4915;SDS011;70796;52.406;13.230;2023-11-19T03:51:10;6.23;;;5.53;;
4915;SDS011;70796;52.406;13.230;2023-11-19T03:53:38;8.77;;;6.53;;
4915;SDS011;70796;52.406;13.230;2023-11-19T03:56:04;8.70;;;6.10;;
4915;SDS011;70796;52.406;13.230;2023-11-19T03:58:32;8.13;;;6.57;;
4915;SDS011;70796;52.406;13.230;2023-11-19T04:01:00;8.23;;;5.30;;
4915;SDS011;70796;52.406;13.230;2023-11-19T04:03:27;8.47;;;5.90;;
4915;SDS011;70796;52.406;13.230;2023-11-19T04:05:53;10.33;;;6.13;;
4915;SDS011;70796;52.406;13.230;2023-11-19T04:08:19;6.43;;;5.70;;
4915;SDS011;70796;52.406;13.230;2023-11-19T04:10:46;8.67;;;5.80;;
4915;SDS011;70796;52.406;13.230;2023-11-19T04:13:13;6.93;;;5.97;;
4915;SDS011;70796;52.406;13.230;2023-11-19T04:15:40;8.50;;;6.40;;
4915;SDS011;70796;52.406;13.230;2023-11-19T04:18:06;7.00;;;6.17;;
4915;SDS011;70796;52.406;13.230;2023-11-19T04:20:33;8.20;;;6.57;;
4915;SDS011;70796;52.406;13.230;2023-11-19T04:22:59;9.73;;;7.37;;
4915;SDS011;70796;52.406;13.230;2023-11-19T04:25:27;9.27;;;6.37;;
4915;SDS011;70796;52.406;13.230;2023-11-19T04:27:53;8.60;;;6.47;;
4915;SDS011;70796;52.406;13.230;2023-11-19T04:30:20;9.10;;;7.27;;
4915;SDS011;70796;52.406;13.230;2023-11-19T04:32:46;7.43;;;6.40;;
4915;SDS011;70796;52.406;13.230;2023-11-19T04:35:15;8.47;;;7.10;;
4915;SDS011;70796;52.406;13.230;2023-11-19T04:37:41;10.63;;;7.57;;
4915;SDS011;70796;52.406;13.230;2023-11-19T04:40:08;10.97;;;6.97;;
4915;SDS011;70796;52.406;13.230;2023-11-19T04:42:36;10.50;;;7.50;;
4915;SDS011;70796;52.406;13.230;2023-11-19T04:45:02;10.87;;;6.73;;
4915;SDS011;70796;52.406;13.230;2023-11-19T04:47:31;14.73;;;7.43;;
4915;SDS011;70796;52.406;13.230;2023-11-19T04:49:58;8.37;;;6.97;;
4915;SDS011;70796;52.406;13.230;2023-11-19T04:52:25;9.00;;;6.70;;
4915;SDS011;70796;52.406;13.230;2023-11-19T04:54:51;10.57;;;6.70;;
4915;SDS011;70796;52.406;13.230;2023-11-19T04:57:20;8.70;;;6.27;;
4915;SDS011;70796;52.406;13.230;2023-11-19T04:59:46;7.37;;;5.77;;
4915;SDS011;70796;52.406;13.230;2023-11-19T05:02:13;7.37;;;6.20;;
4915;SDS011;70796;52.406;13.230;2023-11-19T05:04:42;9.10;;;6.90;;
4915;SDS011;70796;52.406;13.230;2023-11-19T05:07:10;9.67;;;6.60;;
4915;SDS011;70796;52.406;13.230;2023-11-19T05:09:37;9.87;;;6.53;;
4915;SDS011;70796;52.406;13.230;2023-11-19T05:12:03;8.90;;;6.23;;
4915;SDS011;70796;52.406;13.230;2023-11-19T05:14:30;8.43;;;6.30;;
4915;SDS011;70796;52.406;13.230;2023-11-19T05:16:56;8.43;;;6.93;;
4915;SDS011;70796;52.406;13.230;2023-11-19T05:19:24;7.77;;;6.13;;
4915;SDS011;70796;52.406;13.230;2023-11-19T05:21:50;10.43;;;7.53;;
4915;SDS011;70796;52.406;13.230;2023-11-19T05:24:19;8.40;;;6.63;;
4915;SDS011;70796;52.406;13.230;2023-11-19T05:26:47;8.30;;;6.53;;
4915;SDS011;70796;52.406;13.230;2023-11-19T05:29:13;7.77;;;6.87;;
4915;SDS011;70796;52.406;13.230;2023-11-19T05:31:42;9.33;;;7.10;;
4915;SDS011;70796;52.406;13.230;2023-11-19T05:34:10;9.90;;;7.00;;
4915;SDS011;70796;52.406;13.230;2023-11-19T05:36:36;10.30;;;7.37;;
4915;SDS011;70796;52.406;13.230;2023-11-19T05:39:02;14.40;;;7.30;;
4915;SDS011;70796;52.406;13.230;2023-11-19T05:41:29;8.53;;;7.10;;
4915;SDS011;70796;52.406;13.230;2023-11-19T05:43:55;8.00;;;7.10;;
4915;SDS011;70796;52.406;13.230;2023-11-19T05:46:22;9.43;;;7.70;;
4915;SDS011;70796;52.406;13.230;2023-11-19T05:48:49;9.30;;;7.17;;
4915;SDS011;70796;52.406;13.230;2023-11-19T05:51:16;13.90;;;7.33;;
4915;SDS011;70796;52.406;13.230;2023-11-19T05:53:43;9.03;;;7.53;;
4915;SDS011;70796;52.406;13.230;2023-11-19T05:56:10;10.23;;;7.10;;
4915;SDS011;70796;52.406;13.230;2023-11-19T05:58:36;8.50;;;7.27;;
4915;SDS011;70796;52.406;13.230;2023-11-19T06:01:04;10.77;;;8.20;;
4915;SDS011;70796;52.406;13.230;2023-11-19T06:03:31;10.10;;;7.67;;
4915;SDS011;70796;52.406;13.230;2023-11-19T06:05:59;11.10;;;7.93;;
4915;SDS011;70796;52.406;13.230;2023-11-19T06:08:27;10.43;;;7.83;;
4915;SDS011;70796;52.406;13.230;2023-11-19T06:10:53;9.37;;;7.60;;
4915;SDS011;70796;52.406;13.230;2023-11-19T06:13:20;8.87;;;7.50;;
4915;SDS011;70796;52.406;13.230;2023-11-19T06:15:50;11.10;;;7.40;;
4915;SDS011;70796;52.406;13.230;2023-11-19T06:18:17;8.50;;;7.30;;
4915;SDS011;70796;52.406;13.230;2023-11-19T06:20:46;12.43;;;8.60;;
4915;SDS011;70796;52.406;13.230;2023-11-19T06:23:14;9.33;;;7.57;;
4915;SDS011;70796;52.406;13.230;2023-11-19T06:25:40;11.63;;;7.80;;
4915;SDS011;70796;52.406;13.230;2023-11-19T06:28:07;10.00;;;7.43;;
4915;SDS011;70796;52.406;13.230;2023-11-19T06:30:33;9.90;;;7.80;;
4915;SDS011;70796;52.406;13.230;2023-11-19T06:33:01;10.30;;;8.03;;
4915;SDS011;70796;52.406;13.230;2023-11-19T06:35:27;8.60;;;7.67;;
4915;SDS011;70796;52.406;13.230;2023-11-19T06:38:03;9.87;;;7.87;;
4915;SDS011;70796;52.406;13.230;2023-11-19T06:40:31;9.40;;;7.70;;
4915;SDS011;70796;52.406;13.230;2023-11-19T06:42:57;10.33;;;7.93;;
4915;SDS011;70796;52.406;13.230;2023-11-19T06:45:24;10.03;;;7.47;;
4915;SDS011;70796;52.406;13.230;2023-11-19T06:47:50;13.17;;;7.40;;
4915;SDS011;70796;52.406;13.230;2023-11-19T06:50:17;11.60;;;7.97;;
4915;SDS011;70796;52.406;13.230;2023-11-19T06:52:45;9.93;;;7.93;;
4915;SDS011;70796;52.406;13.230;2023-11-19T06:55:12;9.93;;;7.20;;
4915;SDS011;70796;52.406;13.230;2023-11-19T06:57:39;9.03;;;7.70;;
4915;SDS011;70796;52.406;13.230;2023-11-19T07:00:06;9.63;;;7.50;;
4915;SDS011;70796;52.406;13.230;2023-11-19T07:02:34;10.37;;;8.60;;
4915;SDS011;70796;52.406;13.230;2023-11-19T07:05:02;7.90;;;6.73;;
4915;SDS011;70796;52.406;13.230;2023-11-19T07:07:31;10.20;;;6.80;;
4915;SDS011;70796;52.406;13.230;2023-11-19T07:09:59;8.57;;;6.63;;
4915;SDS011;70796;52.406;13.230;2023-11-19T07:12:25;9.80;;;7.23;;
4915;SDS011;70796;52.406;13.230;2023-11-19T07:14:54;7.80;;;6.20;;
4915;SDS011;70796;52.406;13.230;2023-11-19T07:17:21;7.60;;;6.10;;
4915;SDS011;70796;52.406;13.230;2023-11-19T07:19:49;6.67;;;5.73;;
4915;SDS011;70796;52.406;13.230;2023-11-19T07:22:15;8.23;;;6.30;;
4915;SDS011;70796;52.406;13.230;2023-11-19T07:24:42;6.03;;;5.20;;
4915;SDS011;70796;52.406;13.230;2023-11-19T07:27:09;6.30;;;5.03;;
4915;SDS011;70796;52.406;13.230;2023-11-19T07:29:35;7.80;;;5.73;;
4915;SDS011;70796;52.406;13.230;2023-11-19T07:32:04;6.03;;;5.43;;
4915;SDS011;70796;52.406;13.230;2023-11-19T07:34:31;6.63;;;5.57;;
4915;SDS011;70796;52.406;13.230;2023-11-19T07:36:57;7.70;;;5.20;;
4915;SDS011;70796;52.406;13.230;2023-11-19T07:39:28;6.10;;;5.20;;
4915;SDS011;70796;52.406;13.230;2023-11-19T07:41:57;7.00;;;5.60;;
4915;SDS011;70796;52.406;13.230;2023-11-19T07:44:24;6.63;;;4.90;;
4915;SDS011;70796;52.406;13.230;2023-11-19T07:46:51;5.27;;;4.37;;
4915;SDS011;70796;52.406;13.230;2023-11-19T07:49:20;5.77;;;5.17;;
4915;SDS011;70796;52.406;13.230;2023-11-19T07:51:46;5.90;;;4.47;;
4915;SDS011;70796;52.406;13.230;2023-11-19T07:54:12;7.00;;;5.10;;
4915;SDS011;70796;52.406;13.230;2023-11-19T07:56:40;5.70;;;4.93;;
4915;SDS011;70796;52.406;13.230;2023-11-19T07:59:08;14.97;;;5.83;;
4915;SDS011;70796;52.406;13.230;2023-11-19T08:01:35;6.23;;;5.50;;
4915;SDS011;70796;52.406;13.230;2023-11-19T08:04:01;7.27;;;5.83;;
4915;SDS011;70796;52.406;13.230;2023-11-19T08:06:28;6.07;;;5.47;;
4915;SDS011;70796;52.406;13.230;2023-11-19T08:08:55;6.27;;;5.63;;
4915;SDS011;70796;52.406;13.230;2023-11-19T08:11:22;7.17;;;6.13;;
4915;SDS011;70796;52.406;13.230;2023-11-19T08:13:48;6.00;;;4.93;;
4915;SDS011;70796;52.406;13.230;2023-11-19T08:16:14;5.63;;;5.07;;
4915;SDS011;70796;52.406;13.230;2023-11-19T08:18:42;8.77;;;5.83;;
4915;SDS011;70796;52.406;13.230;2023-11-19T08:21:09;7.80;;;5.10;;
4915;SDS011;70796;52.406;13.230;2023-11-19T08:23:36;5.93;;;5.33;;
4915;SDS011;70796;52.406;13.230;2023-11-19T08:26:03;5.73;;;5.23;;
4915;SDS011;70796;52.406;13.230;2023-11-19T08:28:31;5.33;;;4.80;;
4915;SDS011;70796;52.406;13.230;2023-11-19T08:30:57;14.73;;;8.83;;
4915;SDS011;70796;52.406;13.230;2023-11-19T08:33:26;6.10;;;5.03;;
4915;SDS011;70796;52.406;13.230;2023-11-19T08:35:54;8.23;;;4.50;;
4915;SDS011;70796;52.406;13.230;2023-11-19T08:38:23;7.60;;;4.40;;
4915;SDS011;70796;52.406;13.230;2023-11-19T08:40:52;6.57;;;4.50;;
4915;SDS011;70796;52.406;13.230;2023-11-19T08:43:18;4.43;;;4.03;;
4915;SDS011;70796;52.406;13.230;2023-11-19T08:45:46;4.60;;;4.20;;
4915;SDS011;70796;52.406;13.230;2023-11-19T08:48:12;4.30;;;3.90;;
4915;SDS011;70796;52.406;13.230;2023-11-19T08:50:39;7.97;;;4.00;;
4915;SDS011;70796;52.406;13.230;2023-11-19T08:53:06;4.10;;;3.80;;
4915;SDS011;70796;52.406;13.230;2023-11-19T08:55:33;5.17;;;4.00;;
4915;SDS011;70796;52.406;13.230;2023-11-19T08:57:59;5.10;;;4.60;;
4915;SDS011;70796;52.406;13.230;2023-11-19T09:00:26;3.60;;;3.30;;
4915;SDS011;70796;52.406;13.230;2023-11-19T09:02:54;5.70;;;3.80;;
4915;SDS011;70796;52.406;13.230;2023-11-19T09:05:20;6.20;;;3.93;;
4915;SDS011;70796;52.406;13.230;2023-11-19T09:07:47;3.70;;;3.27;;
4915;SDS011;70796;52.406;13.230;2023-11-19T09:10:15;4.50;;;4.10;;
4915;SDS011;70796;52.406;13.230;2023-11-19T09:12:42;4.30;;;3.90;;
4915;SDS011;70796;52.406;13.230;2023-11-19T09:15:08;4.37;;;3.97;;
4915;SDS011;70796;52.406;13.230;2023-11-19T09:17:37;5.93;;;4.40;;
4915;SDS011;70796;52.406;13.230;2023-11-19T09:20:04;7.33;;;4.30;;
4915;SDS011;70796;52.406;13.230;2023-11-19T09:22:31;4.90;;;4.00;;
4915;SDS011;70796;52.406;13.230;2023-11-19T09:24:58;4.60;;;3.77;;
4915;SDS011;70796;52.406;13.230;2023-11-19T09:27:26;7.50;;;3.20;;
4915;SDS011;70796;52.406;13.230;2023-11-19T09:29:52;4.63;;;3.10;;
4915;SDS011;70796;52.406;13.230;2023-11-19T09:32:24;4.37;;;3.00;;
4915;SDS011;70796;52.406;13.230;2023-11-19T09:34:51;2.93;;;2.67;;
4915;SDS011;70796;52.406;13.230;2023-11-19T09:37:18;3.47;;;3.17;;
4915;SDS011;70796;52.406;13.230;2023-11-19T09:39:48;5.60;;;3.17;;
4915;SDS011;70796;52.406;13.230;2023-11-19T09:42:14;5.63;;;3.27;;
4915;SDS011;70796;52.406;13.230;2023-11-19T09:44:40;6.43;;;2.47;;
4915;SDS011;70796;52.406;13.230;2023-11-19T09:47:11;2.73;;;2.43;;
4915;SDS011;70796;52.406;13.230;2023-11-19T09:49:38;8.20;;;3.03;;
4915;SDS011;70796;52.406;13.230;2023-11-19T09:52:06;4.70;;;2.33;;
4915;SDS011;70796;52.406;13.230;2023-11-19T09:54:33;3.90;;;2.70;;
4915;SDS011;70796;52.406;13.230;2023-11-19T09:56:59;6.60;;;2.27;;
4915;SDS011;70796;52.406;13.230;2023-11-19T09:59:30;4.27;;;2.60;;
4915;SDS011;70796;52.406;13.230;2023-11-19T10:01:57;2.80;;;2.60;;
4915;SDS011;70796;52.406;13.230;2023-11-19T10:04:24;5.60;;;2.43;;
4915;SDS011;70796;52.406;13.230;2023-11-19T10:06:51;5.50;;;2.00;;
4915;SDS011;70796;52.406;13.230;2023-11-19T10:09:18;7.53;;;2.03;;
4915;SDS011;70796;52.406;13.230;2023-11-19T10:11:45;8.23;;;2.20;;
4915;SDS011;70796;52.406;13.230;2023-11-19T10:14:14;5.83;;;1.97;;
4915;SDS011;70796;52.406;13.230;2023-11-19T10:16:40;7.43;;;1.90;;
4915;SDS011;70796;52.406;13.230;2023-11-19T10:19:08;3.77;;;2.10;;
4915;SDS011;70796;52.406;13.230;2023-11-19T10:21:38;4.80;;;1.80;;
4915;SDS011;70796;52.406;13.230;2023-11-19T10:24:05;7.53;;;1.90;;
4915;SDS011;70796;52.406;13.230;2023-11-19T10:26:33;7.13;;;2.20;;
4915;SDS011;70796;52.406;13.230;2023-11-19T10:29:01;9.87;;;2.70;;
4915;SDS011;70796;52.406;13.230;2023-11-19T10:31:27;3.20;;;2.10;;
4915;SDS011;70796;52.406;13.230;2023-11-19T10:33:54;4.37;;;2.00;;
4915;SDS011;70796;52.406;13.230;2023-11-19T10:36:21;4.40;;;2.50;;
4915;SDS011;70796;52.406;13.230;2023-11-19T10:38:54;3.23;;;1.90;;
4915;SDS011;70796;52.406;13.230;2023-11-19T10:41:31;10.83;;;2.30;;
4915;SDS011;70796;52.406;13.230;2023-11-19T10:43:58;6.87;;;2.53;;
4915;SDS011;70796;52.406;13.230;2023-11-19T10:46:38;7.80;;;2.37;;
4915;SDS011;70796;52.406;13.230;2023-11-19T10:49:06;10.40;;;2.47;;
4915;SDS011;70796;52.406;13.230;2023-11-19T10:51:32;6.07;;;2.20;;
4915;SDS011;70796;52.406;13.230;2023-11-19T10:54:03;11.40;;;2.70;;
4915;SDS011;70796;52.406;13.230;2023-11-19T10:56:33;9.80;;;2.73;;
4915;SDS011;70796;52.406;13.230;2023-11-19T10:59:00;12.90;;;2.77;;
4915;SDS011;70796;52.406;13.230;2023-11-19T11:01:27;9.80;;;2.50;;
4915;SDS011;70796;52.406;13.230;2023-11-19T11:03:59;10.20;;;3.47;;
4915;SDS011;70796;52.406;13.230;2023-11-19T11:06:27;16.33;;;3.83;;
4915;SDS011;70796;52.406;13.230;2023-11-19T11:08:54;9.87;;;2.80;;
4915;SDS011;70796;52.406;13.230;2023-11-19T11:11:24;8.67;;;2.97;;
4915;SDS011;70796;52.406;13.230;2023-11-19T11:13:54;15.67;;;2.93;;
4915;SDS011;70796;52.406;13.230;2023-11-19T11:16:22;12.20;;;3.23;;
4915;SDS011;70796;52.406;13.230;2023-11-19T11:18:50;10.97;;;3.07;;
4915;SDS011;70796;52.406;13.230;2023-11-19T11:21:20;15.10;;;3.80;;
4915;SDS011;70796;52.406;13.230;2023-11-19T11:31:48;13.60;;;4.23;;
4915;SDS011;70796;52.406;13.230;2023-11-19T11:34:29;13.47;;;3.90;;
4915;SDS011;70796;52.406;13.230;2023-11-19T11:37:15;18.47;;;5.00;;
4915;SDS011;70796;52.406;13.230;2023-11-19T11:39:45;13.83;;;4.00;;
4915;SDS011;70796;52.406;13.230;2023-11-19T11:50:13;13.33;;;3.67;;
4915;SDS011;70796;52.406;13.230;2023-11-19T11:55:26;13.20;;;3.83;;
4915;SDS011;70796;52.406;13.230;2023-11-19T11:57:52;17.03;;;4.07;;
4915;SDS011;70796;52.406;13.230;2023-11-19T12:00:26;12.53;;;3.40;;
4915;SDS011;70796;52.406;13.230;2023-11-19T12:02:57;12.77;;;3.23;;
4915;SDS011;70796;52.406;13.230;2023-11-19T12:05:24;21.57;;;4.23;;
4915;SDS011;70796;52.406;13.230;2023-11-19T12:07:55;13.80;;;3.63;;
4915;SDS011;70796;52.406;13.230;2023-11-19T12:10:22;13.23;;;3.07;;
4915;SDS011;70796;52.406;13.230;2023-11-19T12:12:58;17.97;;;3.67;;
4915;SDS011;70796;52.406;13.230;2023-11-19T12:15:25;24.17;;;4.30;;
4915;SDS011;70796;52.406;13.230;2023-11-19T12:17:54;17.30;;;3.63;;
4915;SDS011;70796;52.406;13.230;2023-11-19T12:20:22;21.40;;;5.00;;
4915;SDS011;70796;52.406;13.230;2023-11-19T12:22:52;15.67;;;3.60;;
4915;SDS011;70796;52.406;13.230;2023-11-19T12:25:21;16.63;;;3.50;;
4915;SDS011;70796;52.406;13.230;2023-11-19T12:27:50;19.23;;;3.73;;
4915;SDS011;70796;52.406;13.230;2023-11-19T12:30:23;18.80;;;3.80;;
4915;SDS011;70796;52.406;13.230;2023-11-19T12:32:51;22.93;;;4.63;;
4915;SDS011;70796;52.406;13.230;2023-11-19T12:35:23;17.03;;;4.07;;
4915;SDS011;70796;52.406;13.230;2023-11-19T12:37:50;18.90;;;4.00;;
4915;SDS011;70796;52.406;13.230;2023-11-19T12:42:46;17.47;;;4.00;;
4915;SDS011;70796;52.406;13.230;2023-11-19T12:45:14;19.60;;;3.90;;
4915;SDS011;70796;52.406;13.230;2023-11-19T12:47:45;23.07;;;4.57;;
4915;SDS011;70796;52.406;13.230;2023-11-19T12:50:14;22.73;;;5.50;;
4915;SDS011;70796;52.406;13.230;2023-11-19T12:52:43;28.23;;;5.50;;
4915;SDS011;70796;52.406;13.230;2023-11-19T12:55:25;31.77;;;5.57;;
4915;SDS011;70796;52.406;13.230;2023-11-19T12:57:56;23.90;;;4.73;;
4915;SDS011;70796;52.406;13.230;2023-11-19T13:00:26;21.37;;;5.00;;
4915;SDS011;70796;52.406;13.230;2023-11-19T13:02:55;23.27;;;4.70;;
4915;SDS011;70796;52.406;13.230;2023-11-19T13:05:27;27.13;;;4.90;;
4915;SDS011;70796;52.406;13.230;2023-11-19T13:08:12;28.80;;;5.60;;
4915;SDS011;70796;52.406;13.230;2023-11-19T13:10:50;29.00;;;5.17;;
4915;SDS011;70796;52.406;13.230;2023-11-19T13:13:18;23.47;;;4.70;;
4915;SDS011;70796;52.406;13.230;2023-11-19T13:15:44;24.40;;;4.93;;
4915;SDS011;70796;52.406;13.230;2023-11-19T13:18:12;29.97;;;5.50;;
4915;SDS011;70796;52.406;13.230;2023-11-19T13:20:41;32.30;;;5.67;;
4915;SDS011;70796;52.406;13.230;2023-11-19T13:23:08;20.20;;;5.33;;
4915;SDS011;70796;52.406;13.230;2023-11-19T13:25:34;30.47;;;5.30;;
4915;SDS011;70796;52.406;13.230;2023-11-19T13:28:01;31.13;;;5.20;;
4915;SDS011;70796;52.406;13.230;2023-11-19T13:30:28;30.63;;;5.83;;
4915;SDS011;70796;52.406;13.230;2023-11-19T13:32:55;31.00;;;5.30;;
4915;SDS011;70796;52.406;13.230;2023-11-19T13:35:23;26.70;;;5.97;;
4915;SDS011;70796;52.406;13.230;2023-11-19T13:37:50;24.23;;;5.60;;
4915;SDS011;70796;52.406;13.230;2023-11-19T13:40:18;34.77;;;5.87;;
4915;SDS011;70796;52.406;13.230;2023-11-19T13:42:46;25.33;;;5.43;;
4915;SDS011;70796;52.406;13.230;2023-11-19T13:45:13;24.10;;;5.00;;
4915;SDS011;70796;52.406;13.230;2023-11-19T13:47:40;22.07;;;5.93;;
4915;SDS011;70796;52.406;13.230;2023-11-19T13:50:11;31.00;;;6.10;;
4915;SDS011;70796;52.406;13.230;2023-11-19T13:52:42;27.37;;;6.07;;
4915;SDS011;70796;52.406;13.230;2023-11-19T13:55:11;26.40;;;6.67;;
4915;SDS011;70796;52.406;13.230;2023-11-19T13:57:41;30.30;;;6.10;;
4915;SDS011;70796;52.406;13.230;2023-11-19T14:00:12;33.73;;;5.57;;
4915;SDS011;70796;52.406;13.230;2023-11-19T14:02:40;30.17;;;5.33;;
4915;SDS011;70796;52.406;13.230;2023-11-19T14:05:07;36.30;;;4.70;;
4915;SDS011;70796;52.406;13.230;2023-11-19T14:07:34;25.10;;;5.13;;
4915;SDS011;70796;52.406;13.230;2023-11-19T14:10:01;29.30;;;5.90;;
4915;SDS011;70796;52.406;13.230;2023-11-19T14:12:29;34.03;;;6.90;;
4915;SDS011;70796;52.406;13.230;2023-11-19T14:14:56;27.70;;;5.60;;
4915;SDS011;70796;52.406;13.230;2023-11-19T14:17:25;30.77;;;5.40;;
4915;SDS011;70796;52.406;13.230;2023-11-19T14:19:52;23.90;;;6.13;;
4915;SDS011;70796;52.406;13.230;2023-11-19T14:22:18;31.13;;;5.27;;
4915;SDS011;70796;52.406;13.230;2023-11-19T14:24:45;27.93;;;4.50;;
4915;SDS011;70796;52.406;13.230;2023-11-19T14:27:12;44.33;;;5.93;;
4915;SDS011;70796;52.406;13.230;2023-11-19T14:29:40;22.27;;;4.37;;
4915;SDS011;70796;52.406;13.230;2023-11-19T14:32:07;22.50;;;4.37;;
4915;SDS011;70796;52.406;13.230;2023-11-19T14:34:33;31.70;;;5.57;;
4915;SDS011;70796;52.406;13.230;2023-11-19T14:37:00;30.47;;;6.77;;
4915;SDS011;70796;52.406;13.230;2023-11-19T14:39:27;26.47;;;5.80;;
4915;SDS011;70796;52.406;13.230;2023-11-19T14:41:54;33.60;;;6.27;;
4915;SDS011;70796;52.406;13.230;2023-11-19T14:44:24;25.93;;;6.57;;
4915;SDS011;70796;52.406;13.230;2023-11-19T14:46:54;26.97;;;5.20;;
4915;SDS011;70796;52.406;13.230;2023-11-19T14:49:22;29.83;;;5.10;;
4915;SDS011;70796;52.406;13.230;2023-11-19T14:51:50;29.33;;;5.40;;
4915;SDS011;70796;52.406;13.230;2023-11-19T14:54:17;32.30;;;5.23;;
4915;SDS011;70796;52.406;13.230;2023-11-19T14:56:43;38.30;;;6.03;;
4915;SDS011;70796;52.406;13.230;2023-11-19T14:59:12;29.53;;;5.40;;
4915;SDS011;70796;52.406;13.230;2023-11-19T15:01:39;30.80;;;5.40;;
4915;SDS011;70796;52.406;13.230;2023-11-19T15:04:06;43.10;;;8.07;;
4915;SDS011;70796;52.406;13.230;2023-11-19T15:06:34;89.70;;;18.73;;
4915;SDS011;70796;52.406;13.230;2023-11-19T15:09:01;29.47;;;5.90;;